Time;durP1;ratioP1;P1;durP2;ratioP2;P2;SDS_P1;SDS_P2;PMS_P1;PMS_P2;Temp;Humidity;BMP_temperature;BMP_pressure;BME280_temperature;BME280_humidity;BME280_pressure;Samples;Min_cycle;Max_cycle;Signal;HPM_P1;HPM_P2
2023/07/25 00:01:10;;;;;;;11.20;2.78;;;;;;;13.58;100.00;100500.09;5073785;28;20055;-62
2023/07/25 00:03:38;;;;;;;11.07;2.83;;;;;;;13.53;100.00;100503.13;5073885;28;20055;-62
2023/07/25 00:06:08;;;;;;;10.50;2.70;;;;;;;13.46;100.00;100502.78;5073340;28;20072;-61
2023/07/25 00:08:36;;;;;;;9.95;2.72;;;;;;;13.48;100.00;100495.59;5073535;28;20061;-62
2023/07/25 00:11:04;;;;;;;9.18;2.78;;;;;;;13.53;100.00;100496.03;5073840;28;20078;-63
2023/07/25 00:13:32;;;;;;;11.00;2.90;;;;;;;13.53;100.00;100497.84;5073440;28;20055;-63
2023/07/25 00:16:00;;;;;;;8.35;2.70;;;;;;;13.46;100.00;100509.91;5073428;28;20051;-62
2023/07/25 00:18:29;;;;;;;11.30;3.20;;;;;;;13.41;100.00;100512.91;5073464;28;20048;-62
2023/07/25 00:20:57;;;;;;;7.22;2.70;;;;;;;13.46;100.00;100501.97;5073295;28;20395;-62
2023/07/25 00:23:26;;;;;;;11.75;3.65;;;;;;;13.39;100.00;100506.91;5073630;28;20056;-62
2023/07/25 00:25:54;;;;;;;9.07;2.80;;;;;;;13.41;100.00;100506.78;5073555;28;20541;-62
2023/07/25 00:28:25;;;;;;;7.88;2.80;;;;;;;13.44;100.00;100504.75;5073248;28;20395;-61
2023/07/25 00:30:53;;;;;;;8.10;2.88;;;;;;;13.38;100.00;100507.06;5072958;28;20562;-62
2023/07/25 00:33:21;;;;;;;10.23;3.15;;;;;;;13.43;100.00;100510.97;5072807;28;20529;-62
2023/07/25 00:35:53;;;;;;;10.80;2.70;;;;;;;13.41;100.00;100506.78;5072777;28;20774;-62
2023/07/25 00:38:21;;;;;;;8.60;2.80;;;;;;;13.41;100.00;100510.25;5072524;28;20036;-61
2023/07/25 00:40:50;;;;;;;8.90;3.00;;;;;;;13.40;100.00;100515.66;5072615;28;20047;-61
2023/07/25 00:43:19;;;;;;;8.18;2.83;;;;;;;13.41;100.00;100520.00;5073063;28;20052;-62
2023/07/25 00:45:47;;;;;;;7.88;2.95;;;;;;;13.34;100.00;100523.09;5071825;28;20049;-61
2023/07/25 00:48:15;;;;;;;9.35;2.55;;;;;;;13.23;100.00;100515.22;5072915;28;20584;-61
2023/07/25 00:50:44;;;;;;;9.00;2.75;;;;;;;13.24;100.00;100524.81;5072760;28;20105;-61
2023/07/25 00:53:16;;;;;;;12.40;2.70;;;;;;;13.14;100.00;100527.38;5073152;28;20097;-62
2023/07/25 00:55:45;;;;;;;9.25;2.63;;;;;;;13.23;100.00;100522.31;5072875;28;20045;-61
2023/07/25 00:58:17;;;;;;;15.73;3.80;;;;;;;13.10;100.00;100523.31;5072473;28;20496;-61
2023/07/25 01:00:45;;;;;;;6.97;2.60;;;;;;;13.10;100.00;100525.09;5072529;28;20147;-62
2023/07/25 01:03:14;;;;;;;7.90;2.78;;;;;;;13.13;100.00;100522.19;5072633;28;20541;-61
2023/07/25 01:05:45;;;;;;;8.82;3.05;;;;;;;13.05;100.00;100517.56;5072396;28;20060;-61
2023/07/25 01:08:13;;;;;;;8.20;2.50;;;;;;;13.05;100.00;100525.47;5072681;28;20054;-62
2023/07/25 01:10:41;;;;;;;7.78;2.65;;;;;;;13.07;100.00;100522.72;5073084;28;20040;-61
2023/07/25 01:13:10;;;;;;;10.98;2.67;;;;;;;13.06;100.00;100513.97;5072546;28;20123;-61
2023/07/25 01:15:41;;;;;;;8.07;2.97;;;;;;;13.11;100.00;100509.13;5072670;28;20048;-62
2023/07/25 01:18:10;;;;;;;10.02;2.85;;;;;;;13.08;100.00;100519.13;5072161;28;20037;-52
2023/07/25 01:20:38;;;;;;;9.80;2.88;;;;;;;13.06;100.00;100510.47;5071807;28;20368;-54
2023/07/25 01:23:07;;;;;;;7.72;2.80;;;;;;;13.11;100.00;100510.94;5069626;28;20063;-53
2023/07/25 01:25:37;;;;;;;8.05;2.65;;;;;;;13.07;100.00;100507.69;5067779;28;20415;-54
2023/07/25 01:28:06;;;;;;;8.82;2.97;;;;;;;13.08;100.00;100506.75;5071864;28;20147;-53
2023/07/25 01:30:34;;;;;;;9.85;2.67;;;;;;;13.09;100.00;100505.78;5071884;28;20044;-54
2023/07/25 01:33:02;;;;;;;7.03;2.38;;;;;;;13.01;100.00;100505.56;5069960;28;20098;-53
2023/07/25 01:35:31;;;;;;;8.20;2.60;;;;;;;13.00;100.00;100510.00;5068497;28;20052;-51
2023/07/25 01:37:59;;;;;;;6.82;2.30;;;;;;;13.07;100.00;100509.50;5067941;28;20133;-53
2023/07/25 01:40:27;;;;;;;9.90;2.78;;;;;;;12.90;100.00;100506.44;5067954;28;20055;-54
2023/07/25 01:42:57;;;;;;;7.63;2.40;;;;;;;12.79;100.00;100506.47;5069283;28;20361;-53
2023/07/25 01:45:25;;;;;;;8.88;2.70;;;;;;;12.85;100.00;100506.78;5069329;28;20049;-53
2023/07/25 01:47:53;;;;;;;8.63;2.88;;;;;;;12.87;100.00;100504.06;5067776;28;20484;-54
2023/07/25 01:50:21;;;;;;;9.85;3.05;;;;;;;12.82;100.00;100499.13;5068146;28;20040;-54
2023/07/25 01:52:49;;;;;;;9.02;3.05;;;;;;;12.81;100.00;100504.53;5068302;28;20052;-54
2023/07/25 01:55:18;;;;;;;7.20;2.70;;;;;;;12.68;100.00;100497.59;5070287;28;20044;-54
2023/07/25 01:57:46;;;;;;;10.63;3.03;;;;;;;12.72;100.00;100492.06;5067978;28;20059;-54
2023/07/25 02:00:16;;;;;;;9.55;2.88;;;;;;;12.59;100.00;100498.31;5067744;28;20051;-54
2023/07/25 02:02:44;;;;;;;8.07;3.42;;;;;;;12.56;100.00;100490.66;5067331;28;20106;-53
2023/07/25 02:05:12;;;;;;;10.65;3.17;;;;;;;12.61;100.00;100490.28;5068114;28;20392;-54
2023/07/25 02:07:40;;;;;;;7.82;2.97;;;;;;;12.51;100.00;100485.72;5067885;28;20503;-50
2023/07/25 02:10:09;;;;;;;8.57;3.25;;;;;;;12.56;100.00;100482.75;5069734;28;20434;-53
2023/07/25 02:12:38;;;;;;;6.65;3.08;;;;;;;12.55;100.00;100486.34;5068962;28;20856;-53
2023/07/25 02:15:07;;;;;;;8.23;3.05;;;;;;;12.55;100.00;100480.22;5067314;28;20500;-51
2023/07/25 02:17:36;;;;;;;9.13;3.20;;;;;;;12.55;100.00;100480.22;5069869;28;20123;-54
2023/07/25 02:20:06;;;;;;;8.30;3.10;;;;;;;12.45;100.00;100478.31;5070935;28;20047;-51
2023/07/25 02:22:34;;;;;;;8.80;3.80;;;;;;;12.59;100.00;100479.03;5070345;28;20115;-54
2023/07/25 02:25:02;;;;;;;7.80;3.13;;;;;;;12.51;100.00;100475.16;5067701;28;20061;-51
2023/07/25 02:27:31;;;;;;;10.30;3.28;;;;;;;12.46;100.00;100473.88;5067852;28;20106;-54
2023/07/25 02:29:59;;;;;;;10.38;3.35;;;;;;;12.43;100.00;100477.59;5066763;28;20098;-51
2023/07/25 02:32:27;;;;;;;8.15;3.20;;;;;;;12.46;100.00;100468.59;5068721;28;20052;-55
2023/07/25 02:34:57;;;;;;;8.75;3.03;;;;;;;12.43;100.00;100474.94;5069526;28;20499;-61
2023/07/25 02:37:25;;;;;;;8.65;3.45;;;;;;;12.37;100.00;100472.81;5069668;28;20395;-61
2023/07/25 02:39:53;;;;;;;11.27;3.38;;;;;;;12.32;100.00;100472.31;5051230;28;20048;-50
2023/07/25 02:42:21;;;;;;;10.35;3.72;;;;;;;12.27;100.00;100470.06;5068548;28;20108;-53
2023/07/25 02:44:50;;;;;;;7.35;3.17;;;;;;;12.25;100.00;100471.97;5066858;28;20052;-54
2023/07/25 02:47:18;;;;;;;10.52;3.60;;;;;;;12.26;100.00;100470.19;5067368;28;20491;-53
2023/07/25 02:49:46;;;;;;;9.40;3.28;;;;;;;12.20;100.00;100476.75;5069394;28;20561;-53
2023/07/25 02:52:16;;;;;;;9.02;3.30;;;;;;;12.15;100.00;100478.91;5049388;28;20189;-52
2023/07/25 02:54:44;;;;;;;9.00;3.58;;;;;;;12.15;100.00;100473.66;5069639;28;20404;-53
2023/07/25 02:57:12;;;;;;;8.50;3.65;;;;;;;12.15;100.00;100478.91;5052634;28;20051;-54
2023/07/25 02:59:40;;;;;;;8.20;3.80;;;;;;;12.06;100.00;100474.34;5070851;28;20040;-53
2023/07/25 03:02:10;;;;;;;7.65;3.67;;;;;;;12.08;100.00;100475.06;5069313;28;20055;-54
2023/07/25 03:04:38;;;;;;;7.72;4.13;;;;;;;12.06;100.00;100477.00;5067528;28;20040;-54
2023/07/25 03:07:07;;;;;;;10.77;4.38;;;;;;;12.04;100.00;100481.53;5067227;28;20063;-53
2023/07/25 03:09:37;;;;;;;8.13;3.88;;;;;;;12.03;100.00;100477.25;5069470;28;20063;-54
2023/07/25 03:12:06;;;;;;;7.93;3.67;;;;;;;12.02;100.00;100473.75;5074066;28;20444;-54
2023/07/25 03:14:34;;;;;;;7.72;3.65;;;;;;;11.99;100.00;100477.44;5073034;28;20054;-53
2023/07/25 03:17:03;;;;;;;10.55;4.10;;;;;;;12.02;100.00;100479.00;5070700;28;20056;-55
2023/07/25 03:19:31;;;;;;;11.05;4.03;;;;;;;11.99;100.00;100481.91;5070934;28;20495;-53
2023/07/25 03:21:59;;;;;;;6.80;3.55;;;;;;;12.04;100.00;100481.53;5070376;28;20037;-55
2023/07/25 03:24:27;;;;;;;10.25;4.20;;;;;;;12.06;100.00;100482.25;5070997;28;20045;-54
2023/07/25 03:26:57;;;;;;;9.70;4.30;;;;;;;12.01;100.00;100485.22;5071142;28;20080;-62
2023/07/25 03:29:25;;;;;;;9.45;4.07;;;;;;;12.05;100.00;100491.13;5072053;28;20484;-62
2023/07/25 03:31:53;;;;;;;8.88;4.25;;;;;;;12.11;100.00;100488.84;5074225;28;20139;-62
2023/07/25 03:34:21;;;;;;;8.57;3.97;;;;;;;11.96;100.00;100488.22;5071347;28;20139;-62
2023/07/25 03:36:49;;;;;;;10.18;3.78;;;;;;;11.99;100.00;100489.81;5070623;28;20053;-62
2023/07/25 03:39:18;;;;;;;9.82;4.00;;;;;;;11.95;100.00;100493.63;5071293;28;20045;-62
2023/07/25 03:41:46;;;;;;;8.07;3.72;;;;;;;11.99;100.00;100493.25;5071638;28;20051;-62
2023/07/25 03:44:17;;;;;;;9.05;4.28;;;;;;;11.92;100.00;100486.75;5073846;28;20051;-62
2023/07/25 03:46:45;;;;;;;9.75;4.45;;;;;;;11.86;100.00;100489.84;5071697;28;20044;-62
2023/07/25 03:49:14;;;;;;;7.90;4.53;;;;;;;11.87;100.00;100485.44;5070699;28;20048;-62
2023/07/25 03:51:42;;;;;;;8.77;4.82;;;;;;;11.82;100.00;100477.88;5073616;28;20047;-62
2023/07/25 03:54:10;;;;;;;10.55;4.85;;;;;;;11.83;100.00;100479.56;5073626;28;20123;-62
2023/07/25 03:56:38;;;;;;;11.77;4.93;;;;;;;11.76;100.00;100484.44;5073652;28;20411;-62
2023/07/25 03:59:07;;;;;;;9.10;4.65;;;;;;;11.84;100.00;100482.06;5073430;28;20105;-62
2023/07/25 04:01:36;;;;;;;9.52;4.85;;;;;;;11.88;100.00;100481.84;5052474;28;20678;-62
2023/07/25 04:04:05;;;;;;;10.00;4.93;;;;;;;11.91;100.00;100476.34;5070773;28;20049;-63
2023/07/25 04:06:33;;;;;;;11.50;5.65;;;;;;;11.84;100.00;100474.16;5055245;28;20743;-54
2023/07/25 04:09:01;;;;;;;11.73;5.45;;;;;;;11.83;100.00;100483.03;5071500;28;20048;-53
2023/07/25 04:11:29;;;;;;;10.55;5.70;;;;;;;11.79;100.00;100475.47;5070172;28;20071;-62
2023/07/25 04:13:58;;;;;;;11.00;5.18;;;;;;;11.74;100.00;100475.84;5068982;28;20048;-52
2023/07/25 04:16:26;;;;;;;12.48;5.28;;;;;;;11.76;100.00;100480.97;5069583;28;20055;-51
2023/07/25 04:18:56;;;;;;;10.07;5.35;;;;;;;11.78;100.00;100479.06;5069558;28;20090;-51
2023/07/25 04:21:24;;;;;;;11.05;5.82;;;;;;;11.65;100.00;100480.00;5072778;28;20468;-53
2023/07/25 04:23:52;;;;;;;12.82;5.47;;;;;;;11.73;100.00;100475.97;5072715;28;20375;-51
2023/07/25 04:26:20;;;;;;;10.98;4.78;;;;;;;11.78;100.00;100472.00;5072851;28;20429;-51
2023/07/25 04:28:49;;;;;;;10.05;5.13;;;;;;;11.78;100.00;100468.50;5069148;28;20098;-52
2023/07/25 04:31:17;;;;;;;11.75;4.55;;;;;;;11.80;100.00;100466.63;5069624;28;20044;-52
2023/07/25 04:33:45;;;;;;;10.85;4.90;;;;;;;11.87;100.00;100462.56;5070129;28;20052;-62
2023/07/25 04:36:15;;;;;;;10.95;5.57;;;;;;;11.84;100.00;100470.69;5069410;28;20118;-52
2023/07/25 04:38:43;;;;;;;12.02;4.82;;;;;;;11.89;100.00;100465.94;5071499;28;20056;-52
2023/07/25 04:41:11;;;;;;;13.45;5.95;;;;;;;11.95;100.00;100469.91;5070070;28;20051;-51
2023/07/25 04:43:39;;;;;;;10.30;6.07;;;;;;;11.88;100.00;100477.41;5050914;28;20048;-52
2023/07/25 04:46:07;;;;;;;12.10;5.80;;;;;;;11.87;100.00;100467.81;5054270;28;20135;-51
2023/07/25 04:48:35;;;;;;;9.63;4.75;;;;;;;11.93;100.00;100472.63;5070470;28;20650;-51
2023/07/25 04:51:04;;;;;;;10.98;5.43;;;;;;;11.94;100.00;100473.47;5069279;28;20393;-52
2023/07/25 04:53:34;;;;;;;11.98;5.43;;;;;;;11.96;100.00;100476.88;5071719;28;20086;-56
2023/07/25 04:56:02;;;;;;;9.60;4.85;;;;;;;12.00;100.00;100471.22;5069097;28;20049;-61
2023/07/25 04:58:30;;;;;;;11.32;5.07;;;;;;;12.00;100.00;100479.13;5068893;28;20041;-62
2023/07/25 05:00:58;;;;;;;13.00;5.57;;;;;;;11.98;100.00;100480.22;5072038;28;20048;-62
2023/07/25 05:03:27;;;;;;;11.95;4.90;;;;;;;11.97;100.00;100483.78;5070188;28;20048;-62
2023/07/25 05:05:56;;;;;;;14.70;5.30;;;;;;;11.95;100.00;100488.34;5068911;28;20067;-53
2023/07/25 05:08:25;;;;;;;11.63;4.75;;;;;;;11.97;100.00;100486.44;5070927;28;20048;-61
2023/07/25 05:10:55;;;;;;;12.60;4.70;;;;;;;12.02;100.00;100486.09;5071871;28;20041;-53
2023/07/25 05:13:23;;;;;;;10.90;4.38;;;;;;;12.05;100.00;100485.84;5071838;28;20434;-54
2023/07/25 05:15:51;;;;;;;12.00;5.05;;;;;;;12.12;100.00;100487.03;5053670;28;20052;-53
2023/07/25 05:18:20;;;;;;;13.35;5.35;;;;;;;12.15;100.00;100489.47;5069738;28;20499;-53
2023/07/25 05:20:48;;;;;;;9.48;4.45;;;;;;;12.14;100.00;100499.16;5068637;28;20097;-53
2023/07/25 05:23:16;;;;;;;12.18;4.85;;;;;;;12.17;100.00;100495.44;5053153;28;20048;-51
2023/07/25 05:25:47;;;;;;;11.80;4.40;;;;;;;12.22;100.00;100490.66;5068343;28;20124;-54
2023/07/25 05:28:18;;;;;;;14.80;4.57;;;;;;;12.32;100.00;100486.34;5068495;28;20055;-50
2023/07/25 05:30:46;;;;;;;10.45;4.85;;;;;;;12.39;100.00;100488.50;5049437;28;20517;-54
2023/07/25 05:33:15;;;;;;;11.57;3.72;;;;;;;12.42;100.00;100482.97;5068455;28;20059;-53
2023/07/25 05:35:43;;;;;;;9.70;3.80;;;;;;;12.47;100.00;100489.56;5050837;28;20060;-62
2023/07/25 05:38:11;;;;;;;9.05;3.70;;;;;;;12.56;100.00;100489.81;5071468;28;20128;-61
2023/07/25 05:40:39;;;;;;;12.13;3.67;;;;;;;12.56;100.00;100493.28;5068240;28;20094;-63
2023/07/25 05:43:07;;;;;;;12.65;3.55;;;;;;;12.60;100.00;100483.34;5068664;28;20040;-62
2023/07/25 05:45:37;;;;;;;10.63;4.22;;;;;;;12.68;100.00;100492.31;5068162;28;20403;-61
2023/07/25 05:48:05;;;;;;;10.15;4.38;;;;;;;12.79;100.00;100488.81;5071039;28;20048;-62
2023/07/25 05:50:33;;;;;;;10.80;3.78;;;;;;;12.89;100.00;100482.81;5071632;28;20511;-62
2023/07/25 05:53:02;;;;;;;14.63;4.25;;;;;;;12.98;100.00;100488.19;5071880;28;20384;-62
2023/07/25 05:55:30;;;;;;;11.18;4.22;;;;;;;13.09;100.00;100502.28;5071386;28;20447;-62
2023/07/25 05:57:58;;;;;;;9.93;3.35;;;;;;;13.19;100.00;100497.94;5071600;28;20071;-63
2023/07/25 06:00:27;;;;;;;12.90;3.55;;;;;;;13.34;100.00;100496.69;5071345;28;20048;-63
2023/07/25 06:02:56;;;;;;;12.43;3.25;;;;;;;13.45;100.00;100493.19;5068073;28;20576;-62
2023/07/25 06:05:24;;;;;;;11.52;3.10;;;;;;;13.66;100.00;100495.00;5069021;28;20056;-62
2023/07/25 06:07:53;;;;;;;7.88;2.90;;;;;;;13.77;100.00;100489.69;5071012;28;20526;-62
2023/07/25 06:10:23;;;;;;;12.90;3.25;;;;;;;13.98;100.00;100497.59;5071485;28;20106;-62
2023/07/25 06:12:54;;;;;;;11.35;2.97;;;;;;;14.06;100.00;100504.88;5071659;28;20045;-62
2023/07/25 06:15:22;;;;;;;9.90;3.20;;;;;;;14.15;100.00;100501.44;5071511;28;20490;-62
2023/07/25 06:17:50;;;;;;;10.48;3.05;;;;;;;14.28;100.00;100498.56;5071473;28;20403;-62
2023/07/25 06:20:20;;;;;;;8.88;2.90;;;;;;;14.30;100.00;100501.94;5071473;28;20055;-62
2023/07/25 06:22:48;;;;;;;11.18;3.10;;;;;;;14.34;100.00;100503.34;5071424;28;20098;-62
2023/07/25 06:25:17;;;;;;;11.80;3.10;;;;;;;14.46;100.00;100505.88;5071256;28;20047;-62
2023/07/25 06:27:45;;;;;;;9.90;2.80;;;;;;;14.46;100.00;100503.25;5071310;28;20123;-61
2023/07/25 06:30:13;;;;;;;12.27;3.28;;;;;;;14.54;100.00;100508.69;5067792;28;20133;-62
2023/07/25 06:32:41;;;;;;;10.43;3.05;;;;;;;14.65;100.00;100510.44;5068911;28;20116;-62
2023/07/25 06:35:10;;;;;;;10.52;2.95;;;;;;;14.69;100.00;100506.56;5070101;28;20503;-62
2023/07/25 06:37:39;;;;;;;9.50;3.03;;;;;;;14.78;100.00;100516.34;5049267;28;20075;-61
2023/07/25 06:40:08;;;;;;;8.18;2.53;;;;;;;14.88;100.00;100511.88;5052942;28;20045;-62
2023/07/25 06:42:37;;;;;;;8.73;2.78;;;;;;;14.86;100.00;100508.56;5071132;28;20036;-61
2023/07/25 06:45:06;;;;;;;8.88;2.50;;;;;;;14.94;100.00;100513.16;5074903;28;20040;-54
2023/07/25 06:47:34;;;;;;;13.43;3.40;;;;;;;14.98;100.00;100525.16;5074791;28;20048;-55
2023/07/25 06:50:02;;;;;;;8.68;2.65;;;;;;;14.97;100.00;100527.94;5074861;28;20045;-61
2023/07/25 06:52:30;;;;;;;6.35;2.33;;;;;;;14.99;100.00;100533.94;5075136;28;20053;-62
2023/07/25 06:55:00;;;;;;;8.45;2.72;;;;;;;15.10;100.00;100530.34;5074928;28;20050;-62
2023/07/25 06:57:28;;;;;;;13.52;2.88;;;;;;;15.13;100.00;100530.06;5074750;28;20506;-62
2023/07/25 06:59:57;;;;;;;7.72;3.22;;;;;;;15.10;100.00;100527.69;5074913;28;20572;-62
2023/07/25 07:02:25;;;;;;;11.77;3.05;;;;;;;15.12;100.00;100523.06;5074730;28;20515;-62
2023/07/25 07:04:55;;;;;;;12.63;3.53;;;;;;;15.15;100.00;100522.81;5074892;28;20057;-61
2023/07/25 07:07:24;;;;;;;8.73;2.95;;;;;;;15.18;100.00;100525.19;5074567;28;20048;-54
2023/07/25 07:09:52;;;;;;;7.88;3.00;;;;;;;15.28;100.00;100526.03;5073392;28;20048;-55
2023/07/25 07:12:21;;;;;;;9.23;2.65;;;;;;;15.30;100.00;100529.38;5071373;28;20051;-62
2023/07/25 07:14:50;;;;;;;7.57;2.58;;;;;;;15.52;100.00;100525.63;5071194;28;20067;-62
2023/07/25 07:17:18;;;;;;;7.32;2.50;;;;;;;15.56;100.00;100531.47;5073777;28;20131;-61
2023/07/25 07:19:47;;;;;;;7.82;3.30;;;;;;;15.63;100.00;100532.59;5073875;28;20044;-61
2023/07/25 07:22:15;;;;;;;9.32;2.70;;;;;;;15.76;100.00;100536.75;5074037;28;20063;-61
2023/07/25 07:24:43;;;;;;;9.57;2.50;;;;;;;15.91;100.00;100534.53;5074384;28;20037;-61
2023/07/25 07:27:11;;;;;;;8.65;2.35;;;;;;;15.93;100.00;100535.25;5074518;28;20123;-62
2023/07/25 07:29:41;;;;;;;6.03;1.50;;;;;;;16.02;100.00;100529.06;5056439;28;20040;-61
2023/07/25 07:32:09;;;;;;;7.53;1.70;;;;;;;16.09;100.00;100537.28;5056085;28;20101;-60
2023/07/25 07:34:37;;;;;;;4.68;1.55;;;;;;;16.18;100.00;100544.38;5074123;28;20064;-54
2023/07/25 07:37:07;;;;;;;8.77;1.65;;;;;;;16.46;100.00;100542.63;5055905;28;20086;-54
2023/07/25 07:39:37;;;;;;;7.55;2.00;;;;;;;16.51;100.00;100542.19;5073789;28;20118;-54
2023/07/25 07:42:05;;;;;;;5.32;1.88;;;;;;;16.51;100.00;100547.50;5071988;28;20064;-53
2023/07/25 07:44:33;;;;;;;5.72;1.77;;;;;;;16.64;100.00;100548.00;5069869;28;20040;-56
2023/07/25 07:47:03;;;;;;;7.68;2.00;;;;;;;16.89;100.00;100545.66;5070600;28;20780;-53
2023/07/25 07:49:33;;;;;;;4.63;1.35;;;;;;;16.96;100.00;100552.06;5064634;28;20049;-54
2023/07/25 07:52:02;;;;;;;7.03;1.50;;;;;;;17.12;100.00;100556.72;5050189;28;20057;-53
2023/07/25 07:54:33;;;;;;;7.15;1.55;;;;;;;17.36;100.00;100566.75;5051393;28;20053;-53
2023/07/25 07:57:02;;;;;;;8.32;1.35;;;;;;;17.40;100.00;100570.78;5051052;28;20037;-61
2023/07/25 07:59:31;;;;;;;6.88;1.20;;;;;;;17.55;100.00;100567.63;5049220;28;20056;-52
2023/07/25 08:02:04;;;;;;;8.32;1.70;;;;;;;17.65;100.00;100567.53;5053417;28;20053;-52
2023/07/25 08:04:33;;;;;;;8.00;1.38;;;;;;;17.74;100.00;100575.41;5053216;28;20060;-55
2023/07/25 08:07:01;;;;;;;5.82;1.45;;;;;;;17.81;100.00;100583.63;5051434;28;20053;-54
2023/07/25 08:09:29;;;;;;;5.07;1.55;;;;;;;17.88;100.00;100584.69;5049780;28;20053;-54
2023/07/25 08:11:58;;;;;;;7.50;1.40;;;;;;;17.78;100.00;100589.25;5031752;28;20059;-55
2023/07/25 08:14:27;;;;;;;5.78;1.63;;;;;;;17.85;100.00;100595.63;5049265;28;20044;-54
2023/07/25 08:16:55;;;;;;;7.07;1.40;;;;;;;17.89;100.00;100598.81;5050523;28;20073;-53
2023/07/25 08:19:24;;;;;;;3.45;1.20;;;;;;;17.92;100.00;100598.53;5053175;28;20127;-55
2023/07/25 08:21:54;;;;;;;7.68;1.80;;;;;;;18.02;100.00;100596.63;5053294;28;20118;-53
2023/07/25 08:24:22;;;;;;;7.40;1.40;;;;;;;18.01;100.00;100594.09;5050062;28;20052;-54
2023/07/25 08:26:50;;;;;;;4.32;1.38;;;;;;;18.02;100.00;100598.44;5050093;28;20073;-54
2023/07/25 08:29:18;;;;;;;5.05;1.38;;;;;;;18.17;100.00;100604.88;5051653;28;20544;-52
2023/07/25 08:31:46;;;;;;;6.07;1.33;;;;;;;18.21;100.00;100602.75;5050126;28;20127;-62
2023/07/25 08:34:15;;;;;;;7.38;1.70;;;;;;;18.36;100.00;100608.34;5034063;28;20056;-55
2023/07/25 08:36:44;;;;;;;5.63;1.50;;;;;;;18.39;100.00;100603.53;5053667;28;20098;-62
2023/07/25 08:39:12;;;;;;;4.75;0.98;;;;;;;18.42;100.00;100600.56;5052992;28;20049;-62
2023/07/25 08:41:45;;;;;;;4.45;1.15;;;;;;;18.65;100.00;100608.03;5053007;28;20072;-62
2023/07/25 08:44:15;;;;;;;4.88;1.10;;;;;;;18.72;100.00;100609.03;5052672;28;20049;-62
2023/07/25 08:46:46;;;;;;;6.53;1.05;;;;;;;18.87;100.00;100598.63;5052310;28;20381;-55
2023/07/25 08:49:17;;;;;;;3.30;0.90;;;;;;;19.15;100.00;100592.25;5052096;28;20063;-54
2023/07/25 08:51:48;;;;;;;5.43;1.30;;;;;;;19.48;100.00;100600.31;5030805;28;20095;-55
2023/07/25 08:54:22;;;;;;;7.18;1.45;;;;;;;19.66;100.00;100601.03;5049512;28;20215;-55
2023/07/25 08:56:50;;;;;;;5.63;1.08;;;;;;;19.79;100.00;100597.03;5049011;28;20476;-55
2023/07/25 08:59:20;;;;;;;6.75;1.52;;;;;;;19.92;100.00;100600.88;5048261;28;20045;-55
2023/07/25 09:01:49;;;;;;;4.75;1.15;;;;;;;20.37;100.00;100593.34;5049286;28;20408;-55
2023/07/25 09:04:19;;;;;;;7.57;1.30;;;;;;;20.73;100.00;100603.59;5049222;28;20168;-53
2023/07/25 09:06:49;;;;;;;4.40;1.00;;;;;;;20.88;100.00;100600.22;5048092;28;20049;-53
2023/07/25 09:09:18;;;;;;;7.15;1.40;;;;;;;20.60;100.00;100601.44;5049201;28;20048;-56
2023/07/25 09:11:46;;;;;;;4.47;1.30;;;;;;;20.53;100.00;100599.63;5048586;28;20045;-55
2023/07/25 09:14:15;;;;;;;4.90;1.08;;;;;;;20.30;100.00;100603.03;5047808;28;20041;-55
2023/07/25 09:16:46;;;;;;;6.72;1.35;;;;;;;20.23;100.00;100600.22;5048456;28;20051;-55
2023/07/25 09:19:14;;;;;;;7.28;1.40;;;;;;;20.16;100.00;100609.06;5048945;28;20523;-55
2023/07/25 09:21:49;;;;;;;5.82;1.13;;;;;;;19.70;100.00;100612.19;5047872;28;20045;-55
2023/07/25 09:24:17;;;;;;;5.90;1.20;;;;;;;19.70;100.00;100607.69;5049500;28;20049;-62
2023/07/25 09:26:50;;;;;;;6.03;1.17;;;;;;;19.98;100.00;100615.41;5050735;28;20500;-62
2023/07/25 09:29:20;;;;;;;5.13;1.40;;;;;;;19.91;100.00;100611.75;5051373;28;20131;-62
2023/07/25 09:31:48;;;;;;;5.75;1.15;;;;;;;19.60;100.00;100612.34;5051823;28;20048;-62
2023/07/25 09:34:24;;;;;;;6.95;1.60;;;;;;;20.07;100.00;100613.56;5033775;28;20083;-61
2023/07/25 09:36:54;;;;;;;5.90;1.25;;;;;;;20.30;100.00;100620.88;5052149;28;20159;-62
2023/07/25 09:39:22;;;;;;;5.28;1.15;;;;;;;20.51;100.00;100615.00;5051746;28;20068;-62
2023/07/25 09:41:51;;;;;;;4.05;0.93;;;;;;;20.45;100.00;100613.84;5034059;28;20053;-62
2023/07/25 09:44:19;;;;;;;4.25;1.00;;;;;;;20.51;100.00;100609.66;5051664;28;20120;-62
2023/07/25 09:46:52;;;;;;;2.78;0.80;;;;;;;20.90;100.00;100608.88;5051598;28;20699;-62
2023/07/25 09:49:22;;;;;;;4.90;0.82;;;;;;;21.03;100.00;100611.00;5051563;28;20028;-62
2023/07/25 09:52:04;;;;;;;3.50;1.15;;;;;;;21.26;100.00;100609.22;5051578;28;20049;-62
2023/07/25 09:54:32;;;;;;;4.43;0.77;;;;;;;21.55;95.16;100602.38;5051413;28;20083;-63
2023/07/25 09:57:00;;;;;;;5.68;0.98;;;;;;;21.63;94.62;100608.69;5051403;28;20044;-56
2023/07/25 09:59:29;;;;;;;3.05;0.80;;;;;;;22.05;93.70;100612.69;5030758;28;20149;-55
2023/07/25 10:01:58;;;;;;;3.40;0.88;;;;;;;22.18;87.69;100607.53;5048180;28;20048;-55
2023/07/25 10:04:31;;;;;;;7.85;1.27;;;;;;;21.95;89.64;100596.88;5049541;28;20044;-56
2023/07/25 10:07:02;;;;;;;5.68;0.88;;;;;;;21.93;86.34;100605.09;5047455;28;20894;-56
2023/07/25 10:09:31;;;;;;;4.13;0.70;;;;;;;21.70;82.53;100606.97;5048189;28;20548;-55
2023/07/25 10:12:01;;;;;;;3.53;0.80;;;;;;;21.65;81.48;100607.50;5047956;28;20045;-54
2023/07/25 10:14:29;;;;;;;2.97;0.45;;;;;;;21.81;82.49;100608.38;5047040;28;20057;-55
2023/07/25 10:16:59;;;;;;;4.25;0.68;;;;;;;22.22;80.56;100603.50;5047922;28;20052;-55
2023/07/25 10:19:27;;;;;;;2.72;0.70;;;;;;;22.73;84.94;100596.63;5054912;28;20052;-55
2023/07/25 10:21:56;;;;;;;5.65;0.95;;;;;;;22.92;76.11;100604.09;5052197;28;20048;-55
2023/07/25 10:24:33;;;;;;;3.05;0.95;;;;;;;22.74;74.79;100617.88;5053883;28;20583;-62
2023/07/25 10:27:08;;;;;;;3.13;0.75;;;;;;;22.85;75.08;100610.38;5055345;28;20704;-56
2023/07/25 10:29:42;;;;;;;6.20;0.90;;;;;;;22.96;70.82;100609.91;5050987;28;20045;-53
2023/07/25 10:32:13;;;;;;;4.35;0.82;;;;;;;23.09;68.93;100595.81;5052836;28;20049;-56
2023/07/25 10:34:50;;;;;;;2.65;0.88;;;;;;;23.62;68.64;100595.59;5053243;28;20048;-55
2023/07/25 10:37:27;;;;;;;5.35;1.05;;;;;;;23.23;69.65;100584.28;5052028;28;20056;-56
2023/07/25 10:40:11;;;;;;;4.88;0.82;;;;;;;22.99;65.51;100593.44;5051606;28;20048;-55
2023/07/25 10:42:44;;;;;;;2.95;0.68;;;;;;;22.37;68.04;100602.72;5053942;28;20091;-55
2023/07/25 10:45:49;;;;;;;3.35;0.60;;;;;;;22.36;72.67;100606.41;5050853;28;20126;-56
2023/07/25 10:48:28;;;;;;;3.63;0.85;;;;;;;22.78;72.94;100603.09;5054302;28;20124;-54
2023/07/25 10:50:57;;;;;;;3.40;0.82;;;;;;;22.98;68.61;100601.69;5053525;28;20079;-55
2023/07/25 10:53:25;;;;;;;3.13;0.40;;;;;;;23.22;68.09;100593.31;5050884;28;20055;-62
2023/07/25 10:56:12;;;;;;;2.75;0.68;;;;;;;23.56;66.26;100593.66;5051602;28;20045;-61
2023/07/25 10:59:01;;;;;;;2.42;0.90;;;;;;;23.98;67.58;100592.00;5053850;28;20186;-62
2023/07/25 11:01:37;;;;;;;2.17;0.60;;;;;;;24.14;60.14;100597.06;5055022;28;20450;-63
2023/07/25 11:04:30;;;;;;;4.53;0.80;;;;;;;24.18;59.23;100585.97;5071624;28;20098;-64
2023/07/25 11:07:10;;;;;;;3.50;0.80;;;;;;;24.20;57.58;100579.38;5053194;28;20194;-60
2023/07/25 11:09:43;;;;;;;6.03;0.95;;;;;;;24.59;58.58;100583.31;5054880;28;20601;-59
2023/07/25 11:12:13;;;;;;;;;;;;;;;24.87;61.44;100584.28;5054162;28;20467;-56
2023/07/25 11:14:42;;;;;;;3.25;0.60;;;;;;;24.85;58.57;100586.34;5051125;28;19924;-57
2023/07/25 11:17:11;;;;;;;6.25;0.90;;;;;;;24.86;58.47;100585.34;5051449;28;20427;-62
2023/07/25 11:19:40;;;;;;;4.53;0.73;;;;;;;25.00;50.83;100595.09;5055326;28;20052;-61
2023/07/25 11:22:10;;;;;;;1.90;0.60;;;;;;;25.22;54.64;100589.59;5052988;28;20053;-63
2023/07/25 11:24:44;;;;;;;3.80;0.70;;;;;;;25.50;52.00;100583.25;5054519;28;20516;-63
2023/07/25 11:27:15;;;;;;;2.92;0.57;;;;;;;25.74;52.58;100585.38;5054354;28;20037;-56